createdAt,value
2018-04-30T00:01:50.858Z,17.86
2018-04-30T00:04:18.364Z,17.68
2018-04-30T00:06:45.841Z,17.60
2018-04-30T00:09:13.392Z,17.50
2018-04-30T00:11:40.881Z,17.63
2018-04-30T00:14:08.381Z,17.74
2018-04-30T00:16:35.853Z,17.58
2018-04-30T00:19:03.365Z,17.56
2018-04-30T00:21:30.841Z,17.82
2018-04-30T00:23:58.316Z,17.69
2018-04-30T00:26:25.822Z,17.56
2018-04-30T00:28:53.308Z,17.58
2018-04-30T00:31:20.808Z,17.75
2018-04-30T00:33:48.287Z,17.57
2018-04-30T00:36:16.054Z,17.63
2018-04-30T00:38:43.532Z,17.58
2018-04-30T00:41:11.016Z,17.34
2018-04-30T00:43:38.526Z,17.37
2018-04-30T00:46:06.022Z,17.46
2018-04-30T00:48:33.822Z,17.58
2018-04-30T00:51:01.301Z,17.50
2018-04-30T00:53:28.777Z,17.29
2018-04-30T00:55:56.304Z,17.10
2018-04-30T00:58:23.913Z,17.29
2018-04-30T01:00:51.425Z,17.09
2018-04-30T01:03:18.921Z,17.06
2018-04-30T01:05:46.702Z,17.03
2018-04-30T01:08:14.180Z,17.20
2018-04-30T01:10:41.652Z,17.15
2018-04-30T01:13:09.153Z,17.05
2018-04-30T01:15:36.764Z,17.17
2018-04-30T01:18:04.265Z,17.08
2018-04-30T01:20:31.737Z,17.36
2018-04-30T01:22:59.273Z,17.16
2018-04-30T01:25:26.748Z,16.89
2018-04-30T01:27:54.229Z,16.99
2018-04-30T01:30:21.729Z,16.99
2018-04-30T01:32:49.202Z,16.81
2018-04-30T01:35:16.708Z,17.06
2018-04-30T01:37:44.188Z,16.87
2018-04-30T01:40:11.685Z,17.06
2018-04-30T01:42:39.192Z,17.07
2018-04-30T01:45:06.669Z,17.18
2018-04-30T01:47:34.167Z,16.76
2018-04-30T01:50:01.686Z,17.08
2018-04-30T01:52:29.355Z,17.01
2018-04-30T01:54:56.833Z,16.97
2018-04-30T01:57:24.304Z,16.70
2018-04-30T01:59:51.805Z,16.64
2018-04-30T02:02:19.292Z,16.53
2018-04-30T02:04:46.824Z,16.65
2018-04-30T02:07:14.313Z,16.57
2018-04-30T02:09:41.838Z,16.66
2018-04-30T02:12:09.316Z,16.75
2018-04-30T02:14:36.795Z,16.66
2018-04-30T02:17:04.309Z,16.58
2018-04-30T02:19:31.795Z,16.43
2018-04-30T02:21:59.319Z,16.34
2018-04-30T02:24:26.800Z,16.28
2018-04-30T02:26:54.549Z,16.20
2018-04-30T02:29:22.036Z,16.10
2018-04-30T02:31:49.529Z,16.23
2018-04-30T02:34:17.079Z,16.13
2018-04-30T02:36:44.648Z,16.11
2018-04-30T02:39:12.161Z,16.13
2018-04-30T02:41:39.645Z,15.98
2018-04-30T02:44:07.168Z,15.84
2018-04-30T02:46:34.645Z,16.01
2018-04-30T02:49:02.176Z,15.80
2018-04-30T02:51:29.653Z,16.16
2018-04-30T02:53:57.153Z,16.07
2018-04-30T02:56:24.674Z,15.92
2018-04-30T02:58:52.154Z,15.85
2018-04-30T03:01:19.624Z,15.91
2018-04-30T03:03:47.151Z,15.78
2018-04-30T03:06:14.628Z,15.66
2018-04-30T03:08:42.125Z,15.73
2018-04-30T03:11:09.617Z,15.78
2018-04-30T03:13:37.133Z,15.65
2018-04-30T03:16:04.651Z,15.47
2018-04-30T03:18:32.144Z,15.34
2018-04-30T03:20:59.657Z,15.51
2018-04-30T03:23:27.157Z,15.58
2018-04-30T03:25:54.677Z,15.49
2018-04-30T03:28:22.159Z,15.39
2018-04-30T03:30:49.884Z,15.18
2018-04-30T03:33:17.371Z,15.20
2018-04-30T03:35:44.857Z,15.28
2018-04-30T03:38:12.353Z,15.36
2018-04-30T03:40:39.848Z,15.30
2018-04-30T03:43:07.344Z,15.39
2018-04-30T03:45:34.823Z,15.26
2018-04-30T03:48:02.299Z,15.20
2018-04-30T03:50:29.829Z,15.08
2018-04-30T03:52:57.304Z,15.10
2018-04-30T03:55:24.825Z,14.93
2018-04-30T03:57:52.300Z,14.92
2018-04-30T04:00:31.660Z,15.13
2018-04-30T04:03:10.999Z,14.92
2018-04-30T04:08:43.394Z,14.84
2018-04-30T04:11:10.900Z,14.91
2018-04-30T04:13:38.383Z,14.92
2018-04-30T04:16:05.895Z,14.81
2018-04-30T04:18:33.393Z,14.93
2018-04-30T04:21:00.869Z,14.59
2018-04-30T04:23:28.496Z,14.81
2018-04-30T04:25:55.972Z,14.83
2018-04-30T04:28:23.457Z,15.15
2018-04-30T04:30:50.956Z,14.92
2018-04-30T04:33:18.432Z,14.73
2018-04-30T04:35:45.937Z,14.45
2018-04-30T04:38:13.413Z,14.38
2018-04-30T04:40:41.092Z,14.49
2018-04-30T04:43:08.736Z,14.74
2018-04-30T04:45:36.209Z,14.72
2018-04-30T04:48:03.708Z,14.46
2018-04-30T04:50:31.181Z,14.43
2018-04-30T04:52:58.864Z,14.37
2018-04-30T04:55:26.341Z,14.51
2018-04-30T04:57:53.822Z,14.63
2018-04-30T05:00:21.339Z,14.42
2018-04-30T05:02:48.859Z,14.27
2018-04-30T05:05:16.362Z,14.60
2018-04-30T05:07:43.844Z,14.55
2018-04-30T05:10:11.469Z,14.74
2018-04-30T05:12:38.953Z,14.70
2018-04-30T05:15:06.437Z,14.42
2018-04-30T05:17:33.938Z,14.55
2018-04-30T05:20:01.436Z,14.58
2018-04-30T05:22:28.937Z,14.76
2018-04-30T05:24:56.409Z,14.69
2018-04-30T05:27:23.907Z,14.86
2018-04-30T05:29:51.380Z,14.55
2018-04-30T05:32:18.892Z,14.44
2018-04-30T05:34:46.393Z,14.70
2018-04-30T05:37:13.868Z,14.51
2018-04-30T05:39:41.397Z,14.71
2018-04-30T05:42:08.869Z,14.55
2018-04-30T05:44:36.369Z,14.56
2018-04-30T05:47:03.865Z,14.68
2018-04-30T05:49:31.788Z,14.75
2018-04-30T05:51:59.264Z,14.54
2018-04-30T05:54:26.756Z,14.34
2018-04-30T05:56:54.254Z,14.66
2018-04-30T05:59:21.738Z,14.53
2018-04-30T06:01:49.241Z,14.59
2018-04-30T06:04:16.745Z,14.59
2018-04-30T06:06:44.520Z,14.49
2018-04-30T06:09:12.034Z,14.46
2018-04-30T06:11:39.520Z,14.49
2018-04-30T06:14:07.025Z,14.33
2018-04-30T06:16:34.516Z,14.63
2018-04-30T06:19:02.020Z,14.49
2018-04-30T06:21:29.497Z,14.24
2018-04-30T06:23:57.401Z,14.27
2018-04-30T06:26:24.881Z,14.46
2018-04-30T06:28:52.368Z,14.39
2018-04-30T06:31:19.880Z,14.53
2018-04-30T06:33:47.357Z,14.75
2018-04-30T06:36:14.885Z,14.91
2018-04-30T06:38:42.365Z,15.18
2018-04-30T06:41:09.877Z,15.06
2018-04-30T06:43:37.549Z,14.72
2018-04-30T06:46:05.025Z,14.74
2018-04-30T06:48:32.524Z,14.85
2018-04-30T06:50:59.996Z,14.96
2018-04-30T06:53:27.741Z,14.92
2018-04-30T06:55:55.228Z,15.10
2018-04-30T06:58:22.701Z,14.76
2018-04-30T07:00:50.204Z,14.81
2018-04-30T07:03:17.691Z,14.78
2018-04-30T07:05:45.209Z,14.57
2018-04-30T07:08:12.695Z,14.36
2018-04-30T07:10:40.533Z,14.68
2018-04-30T07:13:08.033Z,14.58
2018-04-30T07:15:35.584Z,14.74
2018-04-30T07:18:03.041Z,14.48
2018-04-30T07:20:30.537Z,14.54
2018-04-30T07:22:58.045Z,14.52
2018-04-30T07:25:25.549Z,14.56
2018-04-30T07:27:53.161Z,14.56
2018-04-30T07:30:20.589Z,14.83
2018-04-30T07:32:48.097Z,15.11
2018-04-30T07:35:15.604Z,15.07
2018-04-30T07:37:43.080Z,14.95
2018-04-30T07:40:10.605Z,15.17
2018-04-30T07:42:38.089Z,14.87
2018-04-30T07:45:05.583Z,14.93
2018-04-30T07:47:33.120Z,15.10
2018-04-30T07:50:00.594Z,15.26
2018-04-30T07:52:28.102Z,14.91
2018-04-30T07:54:55.610Z,15.09
2018-04-30T07:57:23.398Z,15.24
2018-04-30T07:59:50.901Z,15.40
2018-04-30T08:02:18.377Z,15.49
2018-04-30T08:04:45.904Z,15.34
2018-04-30T08:07:13.448Z,15.70
2018-04-30T08:09:40.949Z,15.19
2018-04-30T08:12:08.433Z,15.25
2018-04-30T08:14:35.961Z,15.50
2018-04-30T08:17:03.436Z,15.43
2018-04-30T08:19:30.938Z,15.38
2018-04-30T08:21:58.445Z,15.67
2018-04-30T08:24:25.917Z,16.07
2018-04-30T08:26:53.462Z,16.45
2018-04-30T08:29:20.925Z,16.34
2018-04-30T08:31:48.644Z,15.90
2018-04-30T08:34:16.166Z,15.69
2018-04-30T08:36:43.713Z,15.94
2018-04-30T08:39:11.180Z,15.75
2018-04-30T08:41:38.657Z,15.58
2018-04-30T08:44:06.164Z,15.88
2018-04-30T08:46:33.637Z,15.49
2018-04-30T08:49:01.200Z,15.40
2018-04-30T08:51:28.688Z,15.55
2018-04-30T08:53:56.165Z,15.63
2018-04-30T08:56:23.677Z,15.64
2018-04-30T08:58:51.149Z,15.60
2018-04-30T09:01:18.664Z,15.82
2018-04-30T09:03:46.146Z,16.13
2018-04-30T09:06:13.865Z,16.02
2018-04-30T09:08:41.345Z,15.84
2018-04-30T09:11:08.827Z,16.22
2018-04-30T09:13:36.325Z,15.97
2018-04-30T09:16:03.809Z,16.06
2018-04-30T09:18:31.328Z,16.19
2018-04-30T09:20:58.805Z,16.07
2018-04-30T09:23:26.454Z,16.21
2018-04-30T09:25:53.961Z,16.36
2018-04-30T09:28:21.433Z,16.20
2018-04-30T09:30:48.936Z,15.96
2018-04-30T09:33:16.432Z,16.15
2018-04-30T09:35:44.237Z,15.96
2018-04-30T09:38:11.732Z,16.24
2018-04-30T09:40:39.211Z,16.19
2018-04-30T09:43:06.725Z,16.43
2018-04-30T09:45:34.202Z,16.34
2018-04-30T09:48:01.701Z,16.34
2018-04-30T09:50:29.180Z,16.08
2018-04-30T09:52:56.653Z,16.29
2018-04-30T09:55:24.149Z,16.13
2018-04-30T09:57:51.717Z,15.98
2018-04-30T10:00:19.149Z,16.26
2018-04-30T10:02:46.881Z,16.44
2018-04-30T10:05:14.577Z,16.27
2018-04-30T10:07:42.048Z,16.27
2018-04-30T10:10:09.524Z,16.34
2018-04-30T10:12:37.029Z,16.58
2018-04-30T10:15:05.149Z,16.91
2018-04-30T10:17:32.843Z,17.07
2018-04-30T10:20:00.321Z,17.46
2018-04-30T10:22:27.802Z,17.57
2018-04-30T10:24:55.304Z,18.08
2018-04-30T10:27:22.781Z,18.25
2018-04-30T10:29:50.285Z,18.34
2018-04-30T10:32:17.757Z,18.04
2018-04-30T10:34:45.489Z,17.99
2018-04-30T10:37:12.961Z,17.55
2018-04-30T10:39:40.441Z,17.31
2018-04-30T10:42:07.941Z,17.24
2018-04-30T10:44:35.605Z,17.48
2018-04-30T10:47:03.296Z,17.48
2018-04-30T10:49:30.773Z,17.36
2018-04-30T10:51:58.251Z,17.22
2018-04-30T10:54:25.755Z,17.39
2018-04-30T10:56:53.249Z,17.01
2018-04-30T10:59:20.953Z,17.16
2018-04-30T11:01:48.432Z,17.35
2018-04-30T11:04:15.936Z,17.33
2018-04-30T11:06:43.440Z,17.47
2018-04-30T11:09:10.928Z,17.20
2018-04-30T11:11:38.433Z,17.02
2018-04-30T11:14:05.930Z,17.08
2018-04-30T11:16:33.549Z,17.38
2018-04-30T11:19:01.028Z,17.62
2018-04-30T11:21:28.507Z,17.46
2018-04-30T11:23:56.017Z,17.54
2018-04-30T11:26:23.493Z,17.98
2018-04-30T11:28:50.989Z,18.12
2018-04-30T11:31:18.465Z,18.13
2018-04-30T11:33:46.153Z,18.10
2018-04-30T11:36:13.726Z,17.90
2018-04-30T11:38:41.212Z,17.62
2018-04-30T11:41:08.728Z,17.60
2018-04-30T11:43:36.229Z,17.33
2018-04-30T11:46:04.005Z,17.37
2018-04-30T11:48:31.517Z,17.24
2018-04-30T11:50:59.015Z,17.07
2018-04-30T11:53:26.544Z,17.19
2018-04-30T11:55:54.053Z,17.10
2018-04-30T11:58:21.572Z,16.76
2018-04-30T12:00:49.061Z,16.72
2018-04-30T12:03:16.716Z,16.45
2018-04-30T12:05:44.213Z,16.54
2018-04-30T12:08:11.701Z,16.89
2018-04-30T12:10:39.212Z,17.35
2018-04-30T12:13:06.715Z,17.80
2018-04-30T12:15:34.332Z,18.08
2018-04-30T12:18:01.831Z,18.30
2018-04-30T12:20:29.537Z,18.26
2018-04-30T12:22:57.041Z,18.65
2018-04-30T12:25:24.540Z,18.75
2018-04-30T12:27:52.092Z,18.43
2018-04-30T12:30:19.596Z,18.30
2018-04-30T12:32:47.144Z,17.94
2018-04-30T12:35:14.640Z,18.21
2018-04-30T12:37:42.247Z,18.47
2018-04-30T12:40:09.765Z,18.60
2018-04-30T12:42:37.276Z,18.71
2018-04-30T12:45:04.790Z,18.39
2018-04-30T12:47:32.313Z,18.65
2018-04-30T12:49:59.977Z,18.79
2018-04-30T12:52:27.484Z,18.50
2018-04-30T12:54:54.965Z,18.04
2018-04-30T12:57:22.477Z,18.09
2018-04-30T12:59:49.988Z,18.07
2018-04-30T13:02:17.718Z,17.94
2018-04-30T13:04:45.245Z,18.31
2018-04-30T13:07:12.732Z,18.47
2018-04-30T13:09:40.240Z,18.11
2018-04-30T13:12:07.721Z,17.99
2018-04-30T13:14:35.237Z,17.95
2018-04-30T13:17:02.735Z,17.66
2018-04-30T13:19:30.423Z,17.79
2018-04-30T13:21:57.904Z,17.96
2018-04-30T13:24:25.392Z,18.26
2018-04-30T13:26:52.890Z,18.40
2018-04-30T13:29:20.392Z,18.49
2018-04-30T13:31:48.101Z,18.54
2018-04-30T13:34:15.572Z,18.25
2018-04-30T13:36:43.072Z,17.78
2018-04-30T13:39:10.573Z,17.55
2018-04-30T13:41:38.049Z,16.78
2018-04-30T13:44:05.585Z,16.27
2018-04-30T13:46:33.057Z,16.54
2018-04-30T13:49:00.877Z,16.76
2018-04-30T13:51:28.357Z,17.03
2018-04-30T13:53:55.833Z,17.47
2018-04-30T13:56:23.364Z,17.71
2018-04-30T13:58:51.096Z,18.14
2018-04-30T14:01:18.613Z,18.13
2018-04-30T14:03:46.097Z,18.13
2018-04-30T14:06:13.897Z,18.40
2018-04-30T14:08:41.369Z,18.18
2018-04-30T14:11:08.846Z,18.33
2018-04-30T14:13:36.349Z,17.97
2018-04-30T14:16:03.840Z,18.08
2018-04-30T14:18:31.389Z,18.30
2018-04-30T14:20:58.876Z,18.53
2018-04-30T14:23:26.574Z,18.35
2018-04-30T14:25:54.053Z,18.81
2018-04-30T14:28:21.606Z,18.54
2018-04-30T14:30:49.105Z,18.40
2018-04-30T14:33:16.589Z,18.53
2018-04-30T14:35:44.085Z,18.74
2018-04-30T14:38:11.561Z,18.64
2018-04-30T14:40:39.077Z,18.94
2018-04-30T14:43:06.581Z,18.88
2018-04-30T14:45:34.094Z,19.19
2018-04-30T14:48:01.569Z,18.77
2018-04-30T14:50:29.056Z,19.35
2018-04-30T14:52:56.560Z,18.96
2018-04-30T14:55:24.043Z,19.05
2018-04-30T14:57:51.548Z,19.13
2018-04-30T15:00:19.028Z,18.80
2018-04-30T15:02:47.009Z,18.71
2018-04-30T15:05:14.487Z,19.16
2018-04-30T15:07:41.966Z,18.97
2018-04-30T15:10:09.468Z,18.91
2018-04-30T15:12:36.949Z,19.10
2018-04-30T15:15:04.449Z,18.98
2018-04-30T15:17:31.934Z,19.32
2018-04-30T15:19:59.828Z,18.74
2018-04-30T15:22:27.306Z,18.68
2018-04-30T15:24:54.792Z,18.73
2018-04-30T15:27:22.305Z,18.86
2018-04-30T15:29:49.784Z,18.81
2018-04-30T15:32:17.480Z,18.70
2018-04-30T15:34:44.976Z,19.03
2018-04-30T15:37:12.453Z,18.89
2018-04-30T15:39:39.949Z,18.82
2018-04-30T15:42:07.477Z,18.68
2018-04-30T15:44:35.325Z,18.66
2018-04-30T15:47:02.805Z,18.89
2018-04-30T15:49:30.279Z,18.75
2018-04-30T15:51:57.781Z,18.38
2018-04-30T15:54:25.286Z,18.33
2018-04-30T15:56:52.781Z,17.81
2018-04-30T15:59:20.259Z,17.84
2018-04-30T16:01:47.765Z,18.04
2018-04-30T16:04:15.237Z,17.33
2018-04-30T16:06:42.838Z,17.41
2018-04-30T16:09:10.281Z,17.16
2018-04-30T16:11:37.758Z,17.11
2018-04-30T16:14:05.373Z,16.77
2018-04-30T16:16:32.801Z,16.52
2018-04-30T16:19:00.521Z,16.38
2018-04-30T16:21:28.025Z,16.43
2018-04-30T16:23:55.504Z,16.26
2018-04-30T16:26:23.012Z,16.50
2018-04-30T16:28:50.526Z,16.76
2018-04-30T16:31:18.031Z,16.70
2018-04-30T16:33:45.541Z,16.64
2018-04-30T16:36:13.029Z,16.55
2018-04-30T16:38:40.529Z,16.20
2018-04-30T16:41:08.019Z,15.80
2018-04-30T16:43:35.517Z,16.02
2018-04-30T16:46:03.070Z,16.04
2018-04-30T16:48:30.594Z,16.05
2018-04-30T16:50:58.069Z,16.07
2018-04-30T16:53:25.549Z,15.93
2018-04-30T16:55:53.059Z,15.88
2018-04-30T16:58:20.550Z,15.73
2018-04-30T17:00:48.062Z,15.98
2018-04-30T17:03:15.541Z,15.86
2018-04-30T17:05:43.268Z,15.98
2018-04-30T17:08:10.750Z,15.84
2018-04-30T17:10:38.255Z,15.99
2018-04-30T17:13:05.776Z,15.40
2018-04-30T17:15:33.274Z,15.64
2018-04-30T17:18:01.025Z,15.45
2018-04-30T17:20:28.496Z,15.35
2018-04-30T17:22:56.013Z,15.49
2018-04-30T17:25:23.508Z,15.48
2018-04-30T17:27:50.996Z,15.21
2018-04-30T17:30:18.544Z,15.17
2018-04-30T17:32:46.030Z,15.04
2018-04-30T17:35:13.673Z,14.84
2018-04-30T17:37:41.169Z,14.99
2018-04-30T17:40:08.645Z,14.47
2018-04-30T17:42:36.160Z,14.84
2018-04-30T17:45:03.636Z,14.78
2018-04-30T17:47:31.203Z,14.46
2018-04-30T17:49:58.684Z,14.24
2018-04-30T17:52:26.457Z,14.35
2018-04-30T17:54:53.949Z,14.41
2018-04-30T17:57:21.548Z,14.36
2018-04-30T17:59:49.054Z,14.41
2018-04-30T18:02:16.533Z,14.18
2018-04-30T18:04:44.065Z,14.03
2018-04-30T18:07:11.560Z,14.25
2018-04-30T18:09:39.042Z,14.22
2018-04-30T18:12:06.542Z,14.02
2018-04-30T18:14:34.015Z,13.74
2018-04-30T18:17:01.525Z,13.81
2018-04-30T18:19:29.006Z,13.77
2018-04-30T18:21:56.676Z,13.49
2018-04-30T18:24:24.158Z,13.55
2018-04-30T18:26:51.702Z,13.77
2018-04-30T18:29:19.192Z,13.87
2018-04-30T18:31:46.669Z,13.81
2018-04-30T18:34:14.238Z,13.89
2018-04-30T18:36:41.718Z,14.16
2018-04-30T18:39:09.376Z,13.88
2018-04-30T18:41:36.866Z,13.84
2018-04-30T18:44:04.357Z,14.02
2018-04-30T18:46:31.861Z,14.13
2018-04-30T18:48:59.360Z,14.08
2018-04-30T18:51:27.063Z,13.51
2018-04-30T18:53:54.561Z,13.42
2018-04-30T18:56:22.058Z,13.38
2018-04-30T18:58:49.602Z,13.59
2018-04-30T19:01:17.349Z,13.31
2018-04-30T19:03:45.214Z,13.43
2018-04-30T19:06:13.227Z,13.58
2018-04-30T19:08:41.614Z,13.35
2018-04-30T19:11:09.485Z,13.60
2018-04-30T19:13:37.178Z,13.58
2018-04-30T19:16:05.153Z,13.39
2018-04-30T19:18:32.902Z,13.25
2018-04-30T19:21:00.807Z,13.10
2018-04-30T19:23:28.373Z,13.12
2018-04-30T19:25:56.248Z,13.34
2018-04-30T19:28:24.003Z,13.56
2018-04-30T19:30:52.016Z,13.44
2018-04-30T19:33:25.833Z,13.66
2018-04-30T19:35:53.765Z,13.37
2018-04-30T19:38:21.790Z,13.08
2018-04-30T19:40:49.571Z,13.25
2018-04-30T19:43:17.732Z,13.27
2018-04-30T19:45:45.727Z,13.13
2018-04-30T19:48:13.620Z,13.16
2018-04-30T19:50:41.154Z,13.25
2018-04-30T19:53:08.697Z,12.89
2018-04-30T19:55:36.215Z,12.88
2018-04-30T19:58:03.728Z,12.94
2018-04-30T20:00:31.231Z,13.06
2018-04-30T20:02:58.921Z,12.88
2018-04-30T20:05:26.449Z,13.09
2018-04-30T20:07:53.983Z,12.97
2018-04-30T20:10:21.769Z,13.03
2018-04-30T20:12:49.627Z,13.04
2018-04-30T20:15:17.110Z,12.84
2018-04-30T20:17:44.595Z,12.71
2018-04-30T20:20:12.137Z,12.75
2018-04-30T20:22:39.678Z,12.74
2018-04-30T20:25:07.210Z,12.67
2018-04-30T20:27:34.719Z,12.62
2018-04-30T20:30:02.234Z,12.84
2018-04-30T20:32:29.745Z,12.53
2018-04-30T20:34:57.464Z,12.62
2018-04-30T20:37:24.949Z,12.62
2018-04-30T20:39:52.429Z,12.52
2018-04-30T20:42:19.941Z,12.59
2018-04-30T20:44:47.429Z,12.60
2018-04-30T20:47:14.958Z,12.57
2018-04-30T20:49:42.455Z,12.57
2018-04-30T20:52:09.949Z,12.56
2018-04-30T20:54:37.483Z,12.77
2018-04-30T20:57:05.002Z,12.52
2018-04-30T20:59:32.591Z,12.37
2018-04-30T21:02:00.081Z,12.60
2018-04-30T21:04:27.925Z,12.42
2018-04-30T21:06:55.414Z,12.53
2018-04-30T21:09:22.903Z,12.59
2018-04-30T21:11:50.441Z,12.68
2018-04-30T21:14:17.917Z,12.61
2018-04-30T21:16:45.416Z,12.56
2018-04-30T21:19:12.889Z,12.66
2018-04-30T21:21:40.397Z,12.70
2018-04-30T21:24:07.890Z,12.85
2018-04-30T21:26:35.393Z,12.76
2018-04-30T21:29:02.894Z,12.70
2018-04-30T21:31:30.390Z,12.66
2018-04-30T21:33:57.916Z,12.81
2018-04-30T21:36:25.717Z,12.74
2018-04-30T21:38:53.193Z,12.46
2018-04-30T21:41:20.699Z,12.71
2018-04-30T21:43:48.186Z,12.72
2018-04-30T21:46:15.687Z,12.46
2018-04-30T21:48:43.161Z,12.53
2018-04-30T21:51:11.068Z,12.36
2018-04-30T21:53:38.547Z,12.48
2018-04-30T21:56:06.029Z,12.64
2018-04-30T21:58:33.559Z,12.60
2018-04-30T22:01:01.030Z,12.36
2018-04-30T22:03:28.527Z,12.54
2018-04-30T22:05:56.001Z,12.53
2018-04-30T22:08:23.609Z,12.49
2018-04-30T22:10:51.080Z,12.10
2018-04-30T22:13:18.631Z,11.95
2018-04-30T22:15:46.212Z,11.86
2018-04-30T22:18:13.729Z,11.82
2018-04-30T22:20:41.249Z,11.85
2018-04-30T22:23:08.741Z,11.58
2018-04-30T22:25:36.228Z,11.45
2018-04-30T22:28:03.738Z,11.30
2018-04-30T22:30:31.226Z,11.33
2018-04-30T22:32:58.733Z,11.25
2018-04-30T22:35:26.221Z,11.42
2018-04-30T22:37:53.913Z,11.31
2018-04-30T22:40:21.411Z,11.17
2018-04-30T22:42:48.885Z,10.92
2018-04-30T22:45:16.454Z,10.99
2018-04-30T22:47:43.893Z,11.14
2018-04-30T22:50:11.394Z,10.73
2018-04-30T22:52:38.868Z,10.67
2018-04-30T22:55:06.379Z,10.72
2018-04-30T22:57:33.863Z,10.96
2018-04-30T23:00:01.345Z,10.61
2018-04-30T23:02:28.885Z,10.25
2018-04-30T23:04:56.356Z,10.05
2018-04-30T23:07:23.885Z,10.20
2018-04-30T23:09:51.357Z,9.92
2018-04-30T23:12:18.833Z,10.04
2018-04-30T23:14:46.336Z,10.22
2018-04-30T23:17:13.870Z,10.38
2018-04-30T23:19:41.374Z,9.91
2018-04-30T23:22:08.850Z,9.99
2018-04-30T23:24:36.372Z,10.01
2018-04-30T23:27:03.846Z,9.69
2018-04-30T23:29:31.322Z,9.78
2018-04-30T23:31:58.828Z,10.03
2018-04-30T23:34:26.297Z,9.60
2018-04-30T23:36:53.842Z,9.77
2018-04-30T23:39:21.304Z,9.83
2018-04-30T23:41:49.056Z,9.88
2018-04-30T23:44:16.536Z,10.01
2018-04-30T23:46:44.123Z,10.18
2018-04-30T23:49:11.620Z,9.80
2018-04-30T23:51:39.096Z,10.09
2018-04-30T23:54:06.589Z,9.85
2018-04-30T23:56:34.061Z,9.83
2018-04-30T23:59:01.529Z,9.94
